Terminal Aerodrome Forecast
Issued by NWS Sterling, VA

Current Version | Previous Version | Graphics & Text | Print | Product List | Glossary On
Versions: 1 2 3 4 5 6 7 8 9 10 11 12 13 14 15 16 17 18 19 20 21 22 23 24 25 26 27 28 29 30
639
FTUS41 KLWX 211738
TAFIAD
TAF
KIAD 211738Z 2118/2224 03006KT P6SM OVC015
     FM220000 02007KT 3SM -SHRA BR OVC008
     FM221200 35006KT 3SM BR OVC008
     FM221600 34007KT 3SM -SHRA OVC020
     FM222000 33008KT 5SM -SHRA OVC040=

USA.gov is the U.S. government's official web portal to all federal, state and local government web resources and services.